createdAt,value
2018-11-07T00:01:00.112Z,63.83
2018-11-07T00:03:28.109Z,61.17
2018-11-07T00:05:56.177Z,63.20
2018-11-07T00:08:24.366Z,63.23
2018-11-07T00:10:52.342Z,60.83
2018-11-07T00:13:20.386Z,60.30
2018-11-07T00:15:48.679Z,70.87
2018-11-07T00:18:16.679Z,57.43
2018-11-07T00:20:44.616Z,62.13
2018-11-07T00:23:12.674Z,65.77
2018-11-07T00:25:40.799Z,65.40
2018-11-07T00:28:08.877Z,67.40
2018-11-07T00:30:37.000Z,68.00
2018-11-07T00:33:05.420Z,62.63
2018-11-07T00:35:33.829Z,64.50
2018-11-07T00:38:01.961Z,65.07
2018-11-07T00:40:30.216Z,69.33
2018-11-07T00:42:58.332Z,68.43
2018-11-07T00:45:26.461Z,63.03
2018-11-07T00:47:54.380Z,64.47
2018-11-07T00:50:22.594Z,64.10
2018-11-07T00:52:50.659Z,68.67
2018-11-07T00:55:18.651Z,63.93
2018-11-07T00:57:47.041Z,64.17
2018-11-07T01:00:16.744Z,67.83
2018-11-07T01:02:45.406Z,62.47
2018-11-07T01:05:13.871Z,71.77
2018-11-07T01:07:42.937Z,67.73
2018-11-07T01:10:11.057Z,66.23
2018-11-07T01:12:39.826Z,67.27
2018-11-07T01:15:08.871Z,65.73
2018-11-07T01:17:36.950Z,64.30
2018-11-07T01:20:06.121Z,60.67
2018-11-07T01:22:34.480Z,63.07
2018-11-07T01:25:02.608Z,65.97
2018-11-07T01:27:30.637Z,61.17
2018-11-07T01:29:59.949Z,62.40
2018-11-07T01:32:27.973Z,58.17
2018-11-07T01:34:56.725Z,63.30
2018-11-07T01:37:24.865Z,56.93
2018-11-07T01:39:53.041Z,58.53
2018-11-07T01:42:21.081Z,62.50
2018-11-07T01:44:49.231Z,58.83
2018-11-07T01:47:17.317Z,61.97
2018-11-07T01:49:45.416Z,59.47
2018-11-07T01:52:13.561Z,61.80
2018-11-07T01:54:41.614Z,58.63
2018-11-07T01:57:09.895Z,58.53
2018-11-07T01:59:38.119Z,66.57
2018-11-07T02:02:06.249Z,61.57
2018-11-07T02:04:34.643Z,61.03
2018-11-07T02:07:02.909Z,61.53
2018-11-07T02:09:31.016Z,64.80
2018-11-07T02:11:59.056Z,60.87
2018-11-07T02:14:27.184Z,65.80
2018-11-07T02:16:55.138Z,64.80
2018-11-07T02:19:23.069Z,60.60
2018-11-07T02:21:51.365Z,61.33
2018-11-07T02:24:19.516Z,62.93
2018-11-07T02:26:47.979Z,59.27
2018-11-07T02:29:16.228Z,62.00
2018-11-07T02:31:45.811Z,63.20
2018-11-07T02:34:14.918Z,60.43
2018-11-07T02:36:43.423Z,65.40
2018-11-07T02:39:12.952Z,59.10
2018-11-07T02:41:41.642Z,65.03
2018-11-07T02:44:10.785Z,62.57
2018-11-07T02:46:39.031Z,58.63
2018-11-07T02:49:07.071Z,57.90
2018-11-07T02:51:35.391Z,57.67
2018-11-07T02:54:03.813Z,61.47
2018-11-07T02:56:32.012Z,61.13
2018-11-07T02:59:00.229Z,58.47
2018-11-07T03:01:29.092Z,61.17
2018-11-07T03:03:57.308Z,59.00
2018-11-07T03:06:25.572Z,64.27
2018-11-07T03:08:53.840Z,60.17
2018-11-07T03:11:22.043Z,58.80
2018-11-07T03:13:50.198Z,58.73
2018-11-07T03:16:18.384Z,62.03
2018-11-07T03:18:46.651Z,63.27
2018-11-07T03:21:14.725Z,61.53
2018-11-07T03:23:43.300Z,56.87
2018-11-07T03:26:11.639Z,56.67
2018-11-07T03:28:39.948Z,55.90
2018-11-07T03:31:08.176Z,57.10
2018-11-07T03:33:37.280Z,57.53
2018-11-07T03:36:05.659Z,61.73
2018-11-07T03:38:33.852Z,50.03
2018-11-07T03:41:02.033Z,54.20
2018-11-07T03:43:30.072Z,53.50
2018-11-07T03:45:59.418Z,52.20
2018-11-07T03:48:29.250Z,49.90
2018-11-07T03:50:57.651Z,52.40
2018-11-07T03:53:26.057Z,48.83
2018-11-07T03:55:54.284Z,54.83
2018-11-07T03:58:23.051Z,49.70
2018-11-07T04:00:51.102Z,48.20
2018-11-07T04:03:19.341Z,47.90
2018-11-07T04:05:47.521Z,48.60
2018-11-07T04:08:15.434Z,47.23
2018-11-07T04:10:43.589Z,47.87
2018-11-07T04:13:11.944Z,46.80
2018-11-07T04:15:40.157Z,48.13
2018-11-07T04:18:08.393Z,45.67
2018-11-07T04:20:36.507Z,49.37
2018-11-07T04:23:04.859Z,48.40
2018-11-07T04:25:33.016Z,53.17
2018-11-07T04:28:01.514Z,49.67
2018-11-07T04:30:29.551Z,50.03
2018-11-07T04:32:57.995Z,50.97
2018-11-07T04:35:26.210Z,49.53
2018-11-07T04:37:54.306Z,49.73
2018-11-07T04:40:22.490Z,50.00
2018-11-07T04:42:52.906Z,54.90
2018-11-07T04:45:20.976Z,52.93
2018-11-07T04:47:49.545Z,53.20
2018-11-07T04:50:17.657Z,52.27
2018-11-07T04:52:52.406Z,50.47
2018-11-07T04:55:21.062Z,49.73
2018-11-07T04:57:49.167Z,50.27
2018-11-07T05:00:18.036Z,49.47
2018-11-07T05:02:46.319Z,52.73
2018-11-07T05:05:15.207Z,50.67
2018-11-07T05:07:43.402Z,54.97
2018-11-07T05:10:12.039Z,51.87
2018-11-07T05:12:40.387Z,49.57
2018-11-07T05:15:09.187Z,48.30
2018-11-07T05:17:37.488Z,51.73
2018-11-07T05:20:07.506Z,49.87
2018-11-07T05:22:35.655Z,48.43
2018-11-07T05:25:03.795Z,51.17
2018-11-07T05:27:31.852Z,51.33
2018-11-07T05:30:00.584Z,51.17
2018-11-07T05:32:28.499Z,50.80
2018-11-07T05:34:56.830Z,49.43
2018-11-07T05:37:25.096Z,48.77
2018-11-07T05:39:53.396Z,50.47
2018-11-07T05:42:21.732Z,47.20
2018-11-07T05:44:49.763Z,50.17
2018-11-07T05:47:18.491Z,48.10
2018-11-07T05:49:46.863Z,51.40
2018-11-07T05:52:15.299Z,50.53
2018-11-07T05:54:42.985Z,45.07
2018-11-07T05:57:11.108Z,47.53
2018-11-07T05:59:38.717Z,45.83
2018-11-07T06:02:06.515Z,50.60
2018-11-07T06:04:34.308Z,46.97
2018-11-07T06:07:02.052Z,47.23
2018-11-07T06:09:29.908Z,47.83
2018-11-07T06:11:57.732Z,51.37
2018-11-07T06:14:25.539Z,46.30
2018-11-07T06:16:54.197Z,46.70
2018-11-07T06:19:22.994Z,48.10
2018-11-07T06:21:52.498Z,47.97
2018-11-07T06:24:20.178Z,49.83
2018-11-07T06:26:48.180Z,46.77
2018-11-07T06:29:16.781Z,46.37
2018-11-07T06:31:45.063Z,51.23
2018-11-07T06:34:13.140Z,46.33
2018-11-07T06:36:40.886Z,50.57
2018-11-07T06:39:09.894Z,45.43
2018-11-07T06:41:37.857Z,44.57
2018-11-07T06:44:06.012Z,45.57
2018-11-07T06:46:34.075Z,48.53
2018-11-07T06:49:02.038Z,47.83
2018-11-07T06:51:29.857Z,44.77
2018-11-07T06:53:57.654Z,43.73
2018-11-07T06:56:25.811Z,46.83
2018-11-07T06:58:54.091Z,43.83
2018-11-07T07:01:22.024Z,44.03
2018-11-07T07:03:50.582Z,44.50
2018-11-07T07:06:18.776Z,47.40
2018-11-07T07:08:46.542Z,45.53
2018-11-07T07:11:14.751Z,46.47
2018-11-07T07:13:42.668Z,43.87
2018-11-07T07:16:11.409Z,43.20
2018-11-07T07:18:39.119Z,45.73
2018-11-07T07:21:06.876Z,45.13
2018-11-07T07:23:34.659Z,44.80
2018-11-07T07:26:02.674Z,42.23
2018-11-07T07:28:30.366Z,46.73
2018-11-07T07:31:05.931Z,45.87
2018-11-07T07:33:39.663Z,42.57
2018-11-07T07:36:13.766Z,43.27
2018-11-07T07:38:41.504Z,43.27
2018-11-07T07:41:15.274Z,48.07
2018-11-07T07:43:51.781Z,43.63
2018-11-07T07:46:28.761Z,44.17
2018-11-07T07:48:56.738Z,42.57
2018-11-07T07:54:14.126Z,44.17
2018-11-07T07:56:42.338Z,45.03
2018-11-07T07:59:11.113Z,42.43
2018-11-07T08:01:40.989Z,45.33
2018-11-07T08:04:08.811Z,40.47
2018-11-07T08:06:38.497Z,40.93
2018-11-07T08:09:08.968Z,44.93
2018-11-07T08:11:39.547Z,40.73
2018-11-07T08:14:09.940Z,41.20
2018-11-07T08:16:39.323Z,41.00
2018-11-07T08:19:09.714Z,38.27
2018-11-07T08:21:38.207Z,39.67
2018-11-07T08:24:07.464Z,40.77
2018-11-07T08:26:36.363Z,41.33
2018-11-07T08:31:46.334Z,38.10
2018-11-07T08:34:14.341Z,39.53
2018-11-07T08:36:53.238Z,41.67
2018-11-07T08:39:21.435Z,37.93
2018-11-07T08:41:54.440Z,38.13
2018-11-07T08:44:25.926Z,37.73
2018-11-07T08:46:54.104Z,38.97
2018-11-07T08:49:24.775Z,39.37
2018-11-07T08:55:22.039Z,39.77
2018-11-07T08:57:55.821Z,36.70
2018-11-07T09:00:24.125Z,37.70
2018-11-07T09:02:52.318Z,38.80
2018-11-07T09:05:21.390Z,35.83
2018-11-07T09:07:49.527Z,36.50
2018-11-07T09:10:18.422Z,34.37
2018-11-07T09:12:46.779Z,31.90
2018-11-07T09:15:16.600Z,35.50
2018-11-07T09:17:44.359Z,37.23
2018-11-07T09:20:17.936Z,39.90
2018-11-07T09:22:45.643Z,35.10
2018-11-07T09:25:15.275Z,35.30
2018-11-07T09:27:43.698Z,33.97
2018-11-07T09:30:14.216Z,34.37
2018-11-07T09:32:41.773Z,37.13
2018-11-07T09:35:10.863Z,35.17
2018-11-07T09:37:38.463Z,34.80
2018-11-07T09:40:08.313Z,36.83
2018-11-07T09:42:36.821Z,34.50
2018-11-07T09:45:05.802Z,33.43
2018-11-07T09:47:33.563Z,33.30
2018-11-07T09:50:01.317Z,34.57
2018-11-07T09:52:29.189Z,34.90
2018-11-07T09:54:56.827Z,32.67
2018-11-07T09:57:24.747Z,42.27
2018-11-07T09:59:52.675Z,37.83
2018-11-07T10:02:20.544Z,35.03
2018-11-07T10:04:48.084Z,32.60
2018-11-07T10:07:16.281Z,36.90
2018-11-07T10:09:43.959Z,35.57
2018-11-07T10:12:11.483Z,37.40
2018-11-07T10:14:39.055Z,35.40
2018-11-07T10:17:06.622Z,34.20
2018-11-07T10:19:34.185Z,32.80
2018-11-07T10:22:01.850Z,36.00
2018-11-07T10:24:29.356Z,31.27
2018-11-07T10:26:56.988Z,33.30
2018-11-07T10:29:24.808Z,38.03
2018-11-07T10:31:52.727Z,33.47
2018-11-07T10:34:20.361Z,32.13
2018-11-07T10:36:47.881Z,34.43
2018-11-07T10:39:15.541Z,34.80
2018-11-07T10:41:43.625Z,36.07
2018-11-07T10:44:11.154Z,35.63
2018-11-07T10:46:38.708Z,31.47
2018-11-07T10:49:06.302Z,33.23
2018-11-07T10:51:34.002Z,33.67
2018-11-07T10:54:01.812Z,34.03
2018-11-07T10:56:29.314Z,31.97
2018-11-07T10:58:56.846Z,32.33
2018-11-07T11:01:30.015Z,35.37
2018-11-07T11:03:57.518Z,33.57
2018-11-07T11:06:25.168Z,34.37
2018-11-07T11:08:53.362Z,31.37
2018-11-07T11:11:20.928Z,28.80
2018-11-07T11:13:48.613Z,31.03
2018-11-07T11:16:16.139Z,38.20
2018-11-07T11:18:43.617Z,29.47
2018-11-07T11:21:11.172Z,28.37
2018-11-07T11:23:38.745Z,31.03
2018-11-07T11:26:06.221Z,28.77
2018-11-07T11:28:33.861Z,30.30
2018-11-07T11:31:03.342Z,28.83
2018-11-07T11:33:30.894Z,31.17
2018-11-07T11:35:58.458Z,32.70
2018-11-07T11:38:26.005Z,35.93
2018-11-07T11:40:53.562Z,30.27
2018-11-07T11:43:21.149Z,33.30
2018-11-07T11:45:48.715Z,30.40
2018-11-07T11:48:16.331Z,28.93
2018-11-07T11:50:43.948Z,29.63
2018-11-07T11:53:11.544Z,29.47
2018-11-07T11:55:39.161Z,32.20
2018-11-07T11:58:06.768Z,30.07
2018-11-07T12:00:34.879Z,27.77
2018-11-07T12:03:02.595Z,26.53
2018-11-07T12:05:30.265Z,27.83
2018-11-07T12:07:57.933Z,27.53
2018-11-07T12:10:26.112Z,29.83
2018-11-07T12:12:55.127Z,29.40
2018-11-07T12:15:24.076Z,26.63
2018-11-07T12:17:52.168Z,28.20
2018-11-07T12:20:19.774Z,26.03
2018-11-07T12:22:47.338Z,29.13
2018-11-07T12:25:15.576Z,24.80
2018-11-07T12:27:43.647Z,29.20
2018-11-07T12:30:14.499Z,31.97
2018-11-07T12:32:43.270Z,25.83
2018-11-07T12:35:11.339Z,31.47
2018-11-07T12:37:39.139Z,28.43
2018-11-07T12:40:07.265Z,30.23
2018-11-07T12:42:35.658Z,28.70
2018-11-07T12:45:03.493Z,28.53
2018-11-07T12:47:31.099Z,30.30
2018-11-07T12:49:59.217Z,25.10
2018-11-07T12:52:26.609Z,28.40
2018-11-07T12:54:54.808Z,28.53
2018-11-07T12:57:22.443Z,27.63
2018-11-07T12:59:49.987Z,31.13
2018-11-07T13:02:17.907Z,27.40
2018-11-07T13:04:45.488Z,26.93
2018-11-07T13:07:12.998Z,22.93
2018-11-07T13:09:40.606Z,26.57
2018-11-07T13:12:08.297Z,28.17
2018-11-07T13:14:35.785Z,27.80
2018-11-07T13:17:03.340Z,29.10
2018-11-07T13:19:30.886Z,27.03
2018-11-07T13:21:58.528Z,28.53
2018-11-07T13:24:26.495Z,29.10
2018-11-07T13:26:54.084Z,27.70
2018-11-07T13:29:21.777Z,28.60
2018-11-07T13:31:49.324Z,34.10
2018-11-07T13:34:16.833Z,27.50
2018-11-07T13:36:44.424Z,29.20
2018-11-07T13:39:13.390Z,25.87
2018-11-07T13:41:41.372Z,27.43
2018-11-07T13:44:09.037Z,26.27
2018-11-07T13:46:37.385Z,26.77
2018-11-07T13:49:05.854Z,27.97
2018-11-07T13:51:33.834Z,31.53
2018-11-07T13:54:01.759Z,28.80
2018-11-07T13:56:29.344Z,28.60
2018-11-07T13:58:57.582Z,29.33
2018-11-07T14:01:25.155Z,25.70
2018-11-07T14:03:53.417Z,26.83
2018-11-07T14:06:21.595Z,28.20
2018-11-07T14:08:49.600Z,25.80
2018-11-07T14:11:17.480Z,27.23
2018-11-07T14:13:45.534Z,30.63
2018-11-07T14:16:13.654Z,30.87
2018-11-07T14:18:41.252Z,26.77
2018-11-07T14:21:09.440Z,26.83
2018-11-07T14:23:37.873Z,27.43
2018-11-07T14:26:05.850Z,29.57
2018-11-07T14:28:34.171Z,29.17
2018-11-07T14:31:02.381Z,27.60
2018-11-07T14:33:31.290Z,28.33
2018-11-07T14:35:59.516Z,27.53
2018-11-07T14:38:28.141Z,30.97
2018-11-07T14:40:56.334Z,30.53
2018-11-07T14:43:26.050Z,28.33
2018-11-07T14:45:54.392Z,31.67
2018-11-07T14:48:22.748Z,31.03
2018-11-07T14:50:50.940Z,29.83
2018-11-07T14:53:18.914Z,30.40
2018-11-07T14:55:47.275Z,30.30
2018-11-07T14:58:16.201Z,32.63
2018-11-07T15:00:44.494Z,28.63
2018-11-07T15:03:12.952Z,32.90
2018-11-07T15:05:40.976Z,31.27
2018-11-07T15:08:09.315Z,31.93
2018-11-07T15:10:37.670Z,31.57
2018-11-07T15:13:05.590Z,29.63
2018-11-07T15:15:33.404Z,31.97
2018-11-07T15:18:01.528Z,33.90
2018-11-07T15:20:29.726Z,31.90
2018-11-07T15:23:01.328Z,33.43
2018-11-07T15:25:29.332Z,37.43
2018-11-07T15:27:57.310Z,31.87
2018-11-07T15:30:25.581Z,33.93
2018-11-07T15:32:53.666Z,32.43
2018-11-07T15:35:21.903Z,33.13
2018-11-07T15:37:49.955Z,32.63
2018-11-07T15:40:18.352Z,31.40
2018-11-07T15:42:46.694Z,32.50
2018-11-07T15:45:16.557Z,29.97
2018-11-07T15:47:45.040Z,31.57
2018-11-07T15:50:18.579Z,30.73
2018-11-07T15:52:47.429Z,34.03
2018-11-07T15:55:17.665Z,34.30
2018-11-07T15:57:45.726Z,35.17
2018-11-07T16:00:15.824Z,41.17
2018-11-07T16:02:44.054Z,36.07
2018-11-07T16:05:15.483Z,36.93
2018-11-07T16:07:43.517Z,37.40
2018-11-07T16:10:12.745Z,38.50
2018-11-07T16:12:41.026Z,34.50
2018-11-07T16:15:14.771Z,38.13
2018-11-07T16:17:42.968Z,38.30
2018-11-07T16:20:12.140Z,39.60
2018-11-07T16:22:45.491Z,37.40
2018-11-07T16:25:13.416Z,40.80
2018-11-07T16:27:42.117Z,39.07
2018-11-07T16:30:12.324Z,46.60
2018-11-07T16:32:40.304Z,45.80
2018-11-07T16:35:09.479Z,39.37
2018-11-07T16:37:37.561Z,40.57
2018-11-07T16:40:07.466Z,49.50
2018-11-07T16:42:35.820Z,41.30
2018-11-07T16:45:04.160Z,41.30
2018-11-07T16:47:32.192Z,43.77
2018-11-07T16:50:00.054Z,44.73
2018-11-07T16:52:28.782Z,42.30
2018-11-07T16:54:56.733Z,47.70
2018-11-07T16:57:24.639Z,42.20
2018-11-07T16:59:52.821Z,44.13
2018-11-07T17:02:20.653Z,43.87
2018-11-07T17:04:48.779Z,42.03
2018-11-07T17:07:16.813Z,41.10
2018-11-07T17:09:44.692Z,43.83
2018-11-07T17:12:13.578Z,47.37
2018-11-07T17:14:41.418Z,42.87
2018-11-07T17:17:09.426Z,50.30
2018-11-07T17:19:37.299Z,44.30
2018-11-07T17:22:18.259Z,44.70
2018-11-07T17:24:56.772Z,41.40
2018-11-07T17:27:24.951Z,40.77
2018-11-07T17:29:59.650Z,43.23
2018-11-07T17:32:28.007Z,44.67
2018-11-07T17:34:59.696Z,48.97
2018-11-07T17:37:29.411Z,47.93
2018-11-07T17:39:57.532Z,48.87
2018-11-07T17:42:30.983Z,50.93
2018-11-07T17:45:15.565Z,52.97
2018-11-07T17:47:43.972Z,53.87
2018-11-07T17:50:16.411Z,47.67
2018-11-07T17:52:44.877Z,50.80
2018-11-07T17:55:14.860Z,54.43
2018-11-07T17:57:43.061Z,53.27
2018-11-07T18:00:13.988Z,63.43
2018-11-07T18:02:47.103Z,55.57
2018-11-07T18:05:20.126Z,50.90
2018-11-07T18:07:48.280Z,49.83
2018-11-07T18:10:17.545Z,46.63
2018-11-07T18:12:46.183Z,54.97
2018-11-07T18:15:14.506Z,53.73
2018-11-07T18:17:47.813Z,51.50
2018-11-07T18:20:18.531Z,54.93
2018-11-07T18:22:46.738Z,53.33
2018-11-07T18:25:15.528Z,49.40
2018-11-07T18:28:14.641Z,53.07
2018-11-07T18:30:43.759Z,59.27
2018-11-07T18:33:15.161Z,53.17
2018-11-07T18:35:43.453Z,47.80
2018-11-07T18:38:11.501Z,52.83
2018-11-07T18:40:39.759Z,48.93
2018-11-07T18:43:08.264Z,52.27
2018-11-07T18:45:44.379Z,53.37
2018-11-07T18:48:20.394Z,50.53
2018-11-07T18:50:48.585Z,51.93
2018-11-07T18:53:17.478Z,48.43
2018-11-07T18:55:50.336Z,45.77
2018-11-07T19:00:55.510Z,55.60
2018-11-07T19:03:23.352Z,61.37
2018-11-07T19:05:51.006Z,62.57
2018-11-07T19:08:18.679Z,52.97
2018-11-07T19:10:46.289Z,51.30
2018-11-07T19:13:13.896Z,55.53
2018-11-07T19:15:41.516Z,54.03
2018-11-07T19:18:09.109Z,51.77
2018-11-07T19:20:39.599Z,55.40
2018-11-07T19:23:08.389Z,55.20
2018-11-07T19:25:38.660Z,56.60
2018-11-07T19:28:08.868Z,54.60
2018-11-07T19:30:38.803Z,55.87
2018-11-07T19:33:07.848Z,52.73
2018-11-07T19:35:35.416Z,51.10
2018-11-07T19:38:03.059Z,53.30
2018-11-07T19:40:30.805Z,52.00
2018-11-07T19:42:58.463Z,51.60
2018-11-07T19:45:28.156Z,54.37
2018-11-07T19:47:55.864Z,57.00
2018-11-07T19:50:23.645Z,57.77
2018-11-07T19:52:51.671Z,60.17
2018-11-07T19:55:20.586Z,59.60
2018-11-07T19:57:51.439Z,59.57
2018-11-07T20:00:19.010Z,56.70
2018-11-07T20:02:46.886Z,59.63
2018-11-07T20:05:14.560Z,57.60
2018-11-07T20:07:43.188Z,52.77
2018-11-07T20:10:13.043Z,59.63
2018-11-07T20:12:40.659Z,58.50
2018-11-07T20:15:09.603Z,58.70
2018-11-07T20:17:37.334Z,61.87
2018-11-07T20:20:05.307Z,59.60
2018-11-07T20:22:33.050Z,62.47
2018-11-07T20:25:00.643Z,61.13
2018-11-07T20:27:28.469Z,65.63
2018-11-07T20:29:56.231Z,62.97
2018-11-07T20:32:23.800Z,62.70
2018-11-07T20:34:51.670Z,62.73
2018-11-07T20:37:19.496Z,59.33
2018-11-07T20:39:47.140Z,62.03
2018-11-07T20:45:50.454Z,58.80
2018-11-07T20:48:18.131Z,58.77
2018-11-07T20:50:45.791Z,60.67
2018-11-07T20:53:13.479Z,62.27
2018-11-07T20:55:41.166Z,58.57
2018-11-07T20:58:09.789Z,60.87
2018-11-07T21:00:37.818Z,62.47
2018-11-07T21:03:05.578Z,57.27
2018-11-07T21:05:33.206Z,65.37
2018-11-07T21:08:00.883Z,60.53
2018-11-07T21:10:28.503Z,59.33
2018-11-07T21:12:56.552Z,62.13
2018-11-07T21:15:24.585Z,57.23
2018-11-07T21:17:52.182Z,58.73
2018-11-07T21:20:20.165Z,55.27
2018-11-07T21:22:48.004Z,52.80
2018-11-07T21:25:15.880Z,55.50
2018-11-07T21:27:43.615Z,53.30
2018-11-07T21:30:13.341Z,55.33
2018-11-07T21:32:41.413Z,54.57
2018-11-07T21:35:09.181Z,52.50
2018-11-07T21:37:36.959Z,56.33
2018-11-07T21:40:12.484Z,56.53
2018-11-07T21:42:42.267Z,56.60
2018-11-07T21:45:11.455Z,52.03
2018-11-07T21:47:40.025Z,59.27
2018-11-07T21:50:08.859Z,56.30
2018-11-07T21:52:37.130Z,58.10
2018-11-07T21:55:05.309Z,57.87
2018-11-07T21:57:32.959Z,54.80
2018-11-07T22:00:01.389Z,61.70
2018-11-07T22:02:29.077Z,60.07
2018-11-07T22:04:56.688Z,56.70
2018-11-07T22:07:25.094Z,59.90
2018-11-07T22:09:52.724Z,58.20
2018-11-07T22:12:20.454Z,59.70
2018-11-07T22:14:48.080Z,60.43
2018-11-07T22:17:18.766Z,56.47
2018-11-07T22:19:57.206Z,59.13
2018-11-07T22:22:24.922Z,58.03
2018-11-07T22:24:52.703Z,58.03
2018-11-07T22:27:20.806Z,56.33
2018-11-07T22:29:48.956Z,57.07
2018-11-07T22:32:16.915Z,56.33
2018-11-07T22:34:45.225Z,61.27
2018-11-07T22:37:13.475Z,59.00
2018-11-07T22:39:41.500Z,60.87
2018-11-07T22:42:09.990Z,60.63
2018-11-07T22:44:38.280Z,57.00
2018-11-07T22:47:06.252Z,58.23
2018-11-07T22:49:34.197Z,59.60
2018-11-07T22:52:02.300Z,59.67
2018-11-07T22:54:30.603Z,56.23
2018-11-07T22:56:58.459Z,65.97
2018-11-07T22:59:26.386Z,59.03
2018-11-07T23:01:54.368Z,59.23
2018-11-07T23:04:22.259Z,58.90
2018-11-07T23:06:50.209Z,61.20
2018-11-07T23:09:18.063Z,64.50
2018-11-07T23:11:45.904Z,64.70
2018-11-07T23:14:14.697Z,61.87
2018-11-07T23:16:43.265Z,59.80
2018-11-07T23:19:11.489Z,59.93
2018-11-07T23:21:39.341Z,59.67
2018-11-07T23:24:07.741Z,58.77
2018-11-07T23:26:35.568Z,59.33
2018-11-07T23:29:03.472Z,63.53
2018-11-07T23:31:31.328Z,60.63
2018-11-07T23:33:59.944Z,58.77
2018-11-07T23:36:28.042Z,55.67
2018-11-07T23:38:56.168Z,59.67
2018-11-07T23:41:24.195Z,57.20
2018-11-07T23:43:52.333Z,58.37
2018-11-07T23:46:20.174Z,57.90
2018-11-07T23:48:48.389Z,58.53
2018-11-07T23:51:16.250Z,59.37
2018-11-07T23:53:44.062Z,55.97
2018-11-07T23:56:11.896Z,57.33
2018-11-07T23:58:39.699Z,60.07
